sensor_id;sensor_type;location;lat;lon;timestamp;temperature;humidity
939;DHT22;456;53.584;9.968;2023-09-18T00:01:38;18.70;57.60
939;DHT22;456;53.584;9.968;2023-09-18T00:04:05;18.80;57.70
939;DHT22;456;53.584;9.968;2023-09-18T00:06:32;18.70;57.50
939;DHT22;456;53.584;9.968;2023-09-18T00:08:57;18.70;57.60
939;DHT22;456;53.584;9.968;2023-09-18T00:11:23;18.70;57.50
939;DHT22;456;53.584;9.968;2023-09-18T00:13:49;18.70;57.60
939;DHT22;456;53.584;9.968;2023-09-18T00:16:14;18.70;57.50
939;DHT22;456;53.584;9.968;2023-09-18T00:18:40;18.70;57.60
939;DHT22;456;53.584;9.968;2023-09-18T00:21:07;18.70;57.40
939;DHT22;456;53.584;9.968;2023-09-18T00:23:36;18.70;57.50
939;DHT22;456;53.584;9.968;2023-09-18T00:26:01;18.70;57.60
939;DHT22;456;53.584;9.968;2023-09-18T00:28:27;18.70;57.50
939;DHT22;456;53.584;9.968;2023-09-18T00:30:53;18.70;57.60
939;DHT22;456;53.584;9.968;2023-09-18T00:33:19;18.70;57.50
939;DHT22;456;53.584;9.968;2023-09-18T00:35:46;18.70;57.60
939;DHT22;456;53.584;9.968;2023-09-18T00:38:12;18.80;57.60
939;DHT22;456;53.584;9.968;2023-09-18T00:40:38;18.70;57.50
939;DHT22;456;53.584;9.968;2023-09-18T00:43:03;18.70;57.50
939;DHT22;456;53.584;9.968;2023-09-18T00:45:29;18.70;57.70
939;DHT22;456;53.584;9.968;2023-09-18T00:47:55;18.70;57.60
939;DHT22;456;53.584;9.968;2023-09-18T00:50:21;18.70;57.70
939;DHT22;456;53.584;9.968;2023-09-18T00:52:47;18.70;57.60
939;DHT22;456;53.584;9.968;2023-09-18T00:55:13;18.70;57.60
939;DHT22;456;53.584;9.968;2023-09-18T00:57:41;18.70;57.70
939;DHT22;456;53.584;9.968;2023-09-18T01:00:07;18.70;57.60
939;DHT22;456;53.584;9.968;2023-09-18T01:02:33;18.70;58.30
939;DHT22;456;53.584;9.968;2023-09-18T01:04:58;18.70;57.60
939;DHT22;456;53.584;9.968;2023-09-18T01:07:24;18.70;57.80
939;DHT22;456;53.584;9.968;2023-09-18T01:09:49;18.70;57.70
939;DHT22;456;53.584;9.968;2023-09-18T01:12:40;18.70;57.60
939;DHT22;456;53.584;9.968;2023-09-18T01:15:15;18.70;57.60
939;DHT22;456;53.584;9.968;2023-09-18T01:17:42;18.70;57.80
939;DHT22;456;53.584;9.968;2023-09-18T01:20:10;18.70;57.70
939;DHT22;456;53.584;9.968;2023-09-18T01:22:36;18.70;57.70
939;DHT22;456;53.584;9.968;2023-09-18T01:25:01;18.70;57.60
939;DHT22;456;53.584;9.968;2023-09-18T01:27:28;18.70;57.50
939;DHT22;456;53.584;9.968;2023-09-18T01:29:53;18.70;57.70
939;DHT22;456;53.584;9.968;2023-09-18T01:32:19;18.70;57.80
939;DHT22;456;53.584;9.968;2023-09-18T01:34:50;18.70;57.90
939;DHT22;456;53.584;9.968;2023-09-18T01:37:19;18.70;57.90
939;DHT22;456;53.584;9.968;2023-09-18T01:39:48;18.70;57.80
939;DHT22;456;53.584;9.968;2023-09-18T01:42:15;18.70;57.70
939;DHT22;456;53.584;9.968;2023-09-18T01:44:41;18.70;57.90
939;DHT22;456;53.584;9.968;2023-09-18T01:47:09;18.70;58.00
939;DHT22;456;53.584;9.968;2023-09-18T01:49:38;18.70;57.90
939;DHT22;456;53.584;9.968;2023-09-18T01:52:05;18.70;58.00
939;DHT22;456;53.584;9.968;2023-09-18T01:54:32;18.80;58.00
939;DHT22;456;53.584;9.968;2023-09-18T01:56:58;18.70;58.20
939;DHT22;456;53.584;9.968;2023-09-18T01:59:24;18.70;58.00
939;DHT22;456;53.584;9.968;2023-09-18T02:01:51;18.70;58.20
939;DHT22;456;53.584;9.968;2023-09-18T02:04:17;18.70;58.00
939;DHT22;456;53.584;9.968;2023-09-18T02:06:43;18.70;58.30
939;DHT22;456;53.584;9.968;2023-09-18T02:09:08;18.70;58.20
939;DHT22;456;53.584;9.968;2023-09-18T02:11:39;18.70;58.40
939;DHT22;456;53.584;9.968;2023-09-18T02:14:04;18.70;58.30
939;DHT22;456;53.584;9.968;2023-09-18T02:16:34;18.80;58.50
939;DHT22;456;53.584;9.968;2023-09-18T02:18:59;18.70;58.20
939;DHT22;456;53.584;9.968;2023-09-18T02:21:25;18.70;58.30
939;DHT22;456;53.584;9.968;2023-09-18T02:23:52;18.70;58.30
939;DHT22;456;53.584;9.968;2023-09-18T02:26:21;18.70;58.80
939;DHT22;456;53.584;9.968;2023-09-18T02:28:47;18.70;58.20
939;DHT22;456;53.584;9.968;2023-09-18T02:31:13;18.70;58.20
939;DHT22;456;53.584;9.968;2023-09-18T02:33:39;18.70;58.20
939;DHT22;456;53.584;9.968;2023-09-18T02:36:05;18.70;58.20
939;DHT22;456;53.584;9.968;2023-09-18T02:38:31;18.70;58.20
939;DHT22;456;53.584;9.968;2023-09-18T02:40:57;18.70;58.20
939;DHT22;456;53.584;9.968;2023-09-18T02:43:23;18.70;58.30
939;DHT22;456;53.584;9.968;2023-09-18T02:45:49;18.70;58.40
939;DHT22;456;53.584;9.968;2023-09-18T02:48:16;18.70;58.50
939;DHT22;456;53.584;9.968;2023-09-18T02:50:41;18.70;58.40
939;DHT22;456;53.584;9.968;2023-09-18T02:53:11;18.70;58.40
939;DHT22;456;53.584;9.968;2023-09-18T02:55:36;18.70;58.20
939;DHT22;456;53.584;9.968;2023-09-18T02:58:02;18.70;58.30
939;DHT22;456;53.584;9.968;2023-09-18T03:00:28;18.70;58.30
939;DHT22;456;53.584;9.968;2023-09-18T03:02:54;18.70;58.40
939;DHT22;456;53.584;9.968;2023-09-18T03:05:19;18.70;58.30
939;DHT22;456;53.584;9.968;2023-09-18T03:07:45;18.80;58.40
939;DHT22;456;53.584;9.968;2023-09-18T03:10:11;18.70;58.50
939;DHT22;456;53.584;9.968;2023-09-18T03:12:40;18.70;58.40
939;DHT22;456;53.584;9.968;2023-09-18T03:15:06;18.70;58.30
939;DHT22;456;53.584;9.968;2023-09-18T03:17:32;18.70;58.40
939;DHT22;456;53.584;9.968;2023-09-18T03:19:58;18.70;58.30
939;DHT22;456;53.584;9.968;2023-09-18T03:22:26;18.70;58.60
939;DHT22;456;53.584;9.968;2023-09-18T03:24:51;18.70;58.30
939;DHT22;456;53.584;9.968;2023-09-18T03:27:17;18.70;58.40
939;DHT22;456;53.584;9.968;2023-09-18T03:29:42;18.70;58.30
939;DHT22;456;53.584;9.968;2023-09-18T03:32:08;18.70;58.50
939;DHT22;456;53.584;9.968;2023-09-18T03:34:37;18.70;58.50
939;DHT22;456;53.584;9.968;2023-09-18T03:37:03;18.70;58.40
939;DHT22;456;53.584;9.968;2023-09-18T03:39:29;18.70;58.40
939;DHT22;456;53.584;9.968;2023-09-18T03:41:54;18.70;58.50
939;DHT22;456;53.584;9.968;2023-09-18T03:44:20;18.70;58.40
939;DHT22;456;53.584;9.968;2023-09-18T03:46:46;18.70;58.40
939;DHT22;456;53.584;9.968;2023-09-18T03:49:12;18.70;58.70
939;DHT22;456;53.584;9.968;2023-09-18T03:51:37;18.70;58.50
939;DHT22;456;53.584;9.968;2023-09-18T03:54:03;18.70;58.50
939;DHT22;456;53.584;9.968;2023-09-18T03:56:28;18.70;58.50
939;DHT22;456;53.584;9.968;2023-09-18T03:58:54;18.70;58.50
939;DHT22;456;53.584;9.968;2023-09-18T04:01:20;18.70;58.40
939;DHT22;456;53.584;9.968;2023-09-18T04:03:46;18.70;58.50
939;DHT22;456;53.584;9.968;2023-09-18T04:06:11;18.70;58.50
939;DHT22;456;53.584;9.968;2023-09-18T04:08:37;18.70;58.50
939;DHT22;456;53.584;9.968;2023-09-18T04:11:03;18.70;58.40
939;DHT22;456;53.584;9.968;2023-09-18T04:13:29;18.70;58.50
939;DHT22;456;53.584;9.968;2023-09-18T04:15:55;18.70;58.40
939;DHT22;456;53.584;9.968;2023-09-18T04:18:22;18.70;58.40
939;DHT22;456;53.584;9.968;2023-09-18T04:20:48;18.70;58.50
939;DHT22;456;53.584;9.968;2023-09-18T04:23:26;18.70;58.40
939;DHT22;456;53.584;9.968;2023-09-18T04:25:53;18.70;58.50
939;DHT22;456;53.584;9.968;2023-09-18T04:28:20;18.70;58.30
939;DHT22;456;53.584;9.968;2023-09-18T04:30:47;18.70;58.50
939;DHT22;456;53.584;9.968;2023-09-18T04:33:14;18.70;58.30
939;DHT22;456;53.584;9.968;2023-09-18T04:35:40;18.70;58.30
939;DHT22;456;53.584;9.968;2023-09-18T04:38:08;18.70;58.50
939;DHT22;456;53.584;9.968;2023-09-18T04:40:36;18.70;58.50
939;DHT22;456;53.584;9.968;2023-09-18T04:43:02;18.70;58.30
939;DHT22;456;53.584;9.968;2023-09-18T04:45:30;18.70;58.40
939;DHT22;456;53.584;9.968;2023-09-18T04:47:56;18.70;58.80
939;DHT22;456;53.584;9.968;2023-09-18T04:50:22;18.70;58.50
939;DHT22;456;53.584;9.968;2023-09-18T04:52:47;18.70;58.40
939;DHT22;456;53.584;9.968;2023-09-18T04:55:14;18.70;58.50
939;DHT22;456;53.584;9.968;2023-09-18T04:57:39;18.70;58.60
939;DHT22;456;53.584;9.968;2023-09-18T05:00:06;18.70;58.50
939;DHT22;456;53.584;9.968;2023-09-18T05:02:38;18.70;58.40
939;DHT22;456;53.584;9.968;2023-09-18T05:05:04;18.70;58.50
939;DHT22;456;53.584;9.968;2023-09-18T05:07:30;18.70;58.40
939;DHT22;456;53.584;9.968;2023-09-18T05:09:55;18.70;58.60
939;DHT22;456;53.584;9.968;2023-09-18T05:12:21;18.70;58.60
939;DHT22;456;53.584;9.968;2023-09-18T05:14:47;18.70;58.40
939;DHT22;456;53.584;9.968;2023-09-18T05:17:15;18.70;58.60
939;DHT22;456;53.584;9.968;2023-09-18T05:19:42;18.70;58.50
939;DHT22;456;53.584;9.968;2023-09-18T05:22:11;18.70;58.60
939;DHT22;456;53.584;9.968;2023-09-18T05:24:39;18.70;58.50
939;DHT22;456;53.584;9.968;2023-09-18T05:27:05;18.70;58.60
939;DHT22;456;53.584;9.968;2023-09-18T05:29:34;18.70;58.60
939;DHT22;456;53.584;9.968;2023-09-18T05:32:01;18.70;58.30
939;DHT22;456;53.584;9.968;2023-09-18T05:34:27;18.70;58.40
939;DHT22;456;53.584;9.968;2023-09-18T05:36:53;18.70;58.60
939;DHT22;456;53.584;9.968;2023-09-18T05:39:18;18.70;58.50
939;DHT22;456;53.584;9.968;2023-09-18T05:41:45;18.70;58.50
939;DHT22;456;53.584;9.968;2023-09-18T05:44:10;18.70;58.50
939;DHT22;456;53.584;9.968;2023-09-18T05:46:36;18.70;58.40
939;DHT22;456;53.584;9.968;2023-09-18T05:49:02;18.70;58.50
939;DHT22;456;53.584;9.968;2023-09-18T05:51:29;18.70;58.50
939;DHT22;456;53.584;9.968;2023-09-18T05:53:55;18.70;58.50
939;DHT22;456;53.584;9.968;2023-09-18T05:56:20;18.70;58.50
939;DHT22;456;53.584;9.968;2023-09-18T05:58:46;18.70;58.50
939;DHT22;456;53.584;9.968;2023-09-18T06:01:12;18.70;58.50
939;DHT22;456;53.584;9.968;2023-09-18T06:03:37;18.70;58.50
939;DHT22;456;53.584;9.968;2023-09-18T06:06:03;18.70;58.50
939;DHT22;456;53.584;9.968;2023-09-18T06:08:29;18.70;58.50
939;DHT22;456;53.584;9.968;2023-09-18T06:10:56;18.70;58.40
939;DHT22;456;53.584;9.968;2023-09-18T06:13:23;18.70;58.70
939;DHT22;456;53.584;9.968;2023-09-18T06:15:49;18.70;58.50
939;DHT22;456;53.584;9.968;2023-09-18T06:18:16;18.70;58.60
939;DHT22;456;53.584;9.968;2023-09-18T06:20:41;18.70;58.40
939;DHT22;456;53.584;9.968;2023-09-18T06:23:09;18.70;58.80
939;DHT22;456;53.584;9.968;2023-09-18T06:25:34;18.70;58.70
939;DHT22;456;53.584;9.968;2023-09-18T06:28:00;18.70;58.60
939;DHT22;456;53.584;9.968;2023-09-18T06:30:28;18.70;58.50
939;DHT22;456;53.584;9.968;2023-09-18T06:32:55;18.70;58.60
939;DHT22;456;53.584;9.968;2023-09-18T06:35:20;18.70;58.50
939;DHT22;456;53.584;9.968;2023-09-18T06:37:46;18.70;58.60
939;DHT22;456;53.584;9.968;2023-09-18T06:40:11;18.70;59.10
939;DHT22;456;53.584;9.968;2023-09-18T06:42:37;18.70;58.50
939;DHT22;456;53.584;9.968;2023-09-18T06:45:03;18.70;58.50
939;DHT22;456;53.584;9.968;2023-09-18T06:47:32;18.70;58.40
939;DHT22;456;53.584;9.968;2023-09-18T06:49:58;18.70;58.50
939;DHT22;456;53.584;9.968;2023-09-18T06:52:25;18.70;58.40
939;DHT22;456;53.584;9.968;2023-09-18T06:54:52;18.70;58.30
939;DHT22;456;53.584;9.968;2023-09-18T06:57:17;18.70;58.30
939;DHT22;456;53.584;9.968;2023-09-18T06:59:43;18.70;58.50
939;DHT22;456;53.584;9.968;2023-09-18T07:02:10;18.70;58.30
939;DHT22;456;53.584;9.968;2023-09-18T07:04:35;18.70;58.30
939;DHT22;456;53.584;9.968;2023-09-18T07:07:01;18.70;58.30
939;DHT22;456;53.584;9.968;2023-09-18T07:09:27;18.70;58.20
939;DHT22;456;53.584;9.968;2023-09-18T07:11:53;18.70;58.30
939;DHT22;456;53.584;9.968;2023-09-18T07:14:18;18.70;58.30
939;DHT22;456;53.584;9.968;2023-09-18T07:16:44;18.70;58.20
939;DHT22;456;53.584;9.968;2023-09-18T07:19:09;18.70;58.10
939;DHT22;456;53.584;9.968;2023-09-18T07:21:37;18.70;58.00
939;DHT22;456;53.584;9.968;2023-09-18T07:24:04;18.70;58.60
939;DHT22;456;53.584;9.968;2023-09-18T07:26:29;18.70;57.90
939;DHT22;456;53.584;9.968;2023-09-18T07:28:55;18.70;58.10
939;DHT22;456;53.584;9.968;2023-09-18T07:31:22;18.70;58.00
939;DHT22;456;53.584;9.968;2023-09-18T07:33:47;18.70;58.10
939;DHT22;456;53.584;9.968;2023-09-18T07:36:13;18.70;58.10
939;DHT22;456;53.584;9.968;2023-09-18T07:38:40;18.70;58.10
939;DHT22;456;53.584;9.968;2023-09-18T07:41:08;18.70;58.00
939;DHT22;456;53.584;9.968;2023-09-18T07:43:34;18.70;57.90
939;DHT22;456;53.584;9.968;2023-09-18T07:46:00;18.70;58.00
939;DHT22;456;53.584;9.968;2023-09-18T07:48:27;18.70;57.90
939;DHT22;456;53.584;9.968;2023-09-18T07:50:52;18.70;58.00
939;DHT22;456;53.584;9.968;2023-09-18T07:53:20;18.70;58.00
939;DHT22;456;53.584;9.968;2023-09-18T07:55:45;18.80;58.10
939;DHT22;456;53.584;9.968;2023-09-18T07:58:11;18.70;58.10
939;DHT22;456;53.584;9.968;2023-09-18T08:00:37;18.70;58.30
939;DHT22;456;53.584;9.968;2023-09-18T08:03:02;18.70;58.30
939;DHT22;456;53.584;9.968;2023-09-18T08:05:29;18.70;58.20
939;DHT22;456;53.584;9.968;2023-09-18T08:07:56;18.80;56.10
939;DHT22;456;53.584;9.968;2023-09-18T08:10:22;18.90;53.70
939;DHT22;456;53.584;9.968;2023-09-18T08:12:48;19.00;52.00
939;DHT22;456;53.584;9.968;2023-09-18T08:15:17;19.00;52.80
939;DHT22;456;53.584;9.968;2023-09-18T08:17:42;19.00;52.60
939;DHT22;456;53.584;9.968;2023-09-18T08:20:09;19.00;53.60
939;DHT22;456;53.584;9.968;2023-09-18T08:22:39;19.00;53.30
939;DHT22;456;53.584;9.968;2023-09-18T08:25:06;19.00;53.20
939;DHT22;456;53.584;9.968;2023-09-18T08:27:37;19.00;52.80
939;DHT22;456;53.584;9.968;2023-09-18T08:30:07;19.00;53.00
939;DHT22;456;53.584;9.968;2023-09-18T08:32:35;19.00;52.70
939;DHT22;456;53.584;9.968;2023-09-18T08:35:01;19.00;52.50
939;DHT22;456;53.584;9.968;2023-09-18T08:37:27;19.00;53.00
939;DHT22;456;53.584;9.968;2023-09-18T08:39:53;19.10;52.20
939;DHT22;456;53.584;9.968;2023-09-18T08:42:20;19.10;52.20
939;DHT22;456;53.584;9.968;2023-09-18T08:44:50;19.10;53.10
939;DHT22;456;53.584;9.968;2023-09-18T08:47:17;19.10;52.30
939;DHT22;456;53.584;9.968;2023-09-18T08:49:46;19.10;52.50
939;DHT22;456;53.584;9.968;2023-09-18T08:52:12;19.00;53.00
939;DHT22;456;53.584;9.968;2023-09-18T08:54:38;19.10;52.30
939;DHT22;456;53.584;9.968;2023-09-18T08:57:04;19.10;52.60
939;DHT22;456;53.584;9.968;2023-09-18T08:59:33;19.10;53.10
939;DHT22;456;53.584;9.968;2023-09-18T09:02:00;19.10;52.20
939;DHT22;456;53.584;9.968;2023-09-18T09:04:25;19.10;51.80
939;DHT22;456;53.584;9.968;2023-09-18T09:06:51;19.10;52.70
939;DHT22;456;53.584;9.968;2023-09-18T09:09:17;19.20;52.00
939;DHT22;456;53.584;9.968;2023-09-18T09:11:50;19.10;52.00
939;DHT22;456;53.584;9.968;2023-09-18T09:14:17;19.10;52.60
939;DHT22;456;53.584;9.968;2023-09-18T09:16:53;19.20;51.50
939;DHT22;456;53.584;9.968;2023-09-18T09:19:28;19.10;51.60
939;DHT22;456;53.584;9.968;2023-09-18T09:21:55;19.20;51.30
939;DHT22;456;53.584;9.968;2023-09-18T09:24:49;19.20;51.30
939;DHT22;456;53.584;9.968;2023-09-18T09:27:15;19.10;52.10
939;DHT22;456;53.584;9.968;2023-09-18T09:29:57;19.20;51.30
939;DHT22;456;53.584;9.968;2023-09-18T09:32:23;19.20;52.10
939;DHT22;456;53.584;9.968;2023-09-18T09:34:48;19.10;52.40
939;DHT22;456;53.584;9.968;2023-09-18T09:37:14;19.20;51.40
939;DHT22;456;53.584;9.968;2023-09-18T09:39:50;19.20;51.30
939;DHT22;456;53.584;9.968;2023-09-18T09:42:20;19.20;51.80
939;DHT22;456;53.584;9.968;2023-09-18T09:45:13;19.30;51.10
939;DHT22;456;53.584;9.968;2023-09-18T09:47:39;19.20;51.60
939;DHT22;456;53.584;9.968;2023-09-18T09:50:08;19.20;51.30
939;DHT22;456;53.584;9.968;2023-09-18T09:52:35;19.20;51.30
939;DHT22;456;53.584;9.968;2023-09-18T09:57:58;19.20;51.30
939;DHT22;456;53.584;9.968;2023-09-18T10:00:49;19.20;51.30
939;DHT22;456;53.584;9.968;2023-09-18T10:03:18;19.20;51.30
939;DHT22;456;53.584;9.968;2023-09-18T10:05:46;19.20;51.30
939;DHT22;456;53.584;9.968;2023-09-18T10:08:25;19.20;51.30
939;DHT22;456;53.584;9.968;2023-09-18T10:11:07;19.20;50.80
939;DHT22;456;53.584;9.968;2023-09-18T10:14:08;19.20;51.30
939;DHT22;456;53.584;9.968;2023-09-18T10:16:33;19.20;51.70
939;DHT22;456;53.584;9.968;2023-09-18T10:19:05;19.20;50.80
939;DHT22;456;53.584;9.968;2023-09-18T10:22:04;19.20;51.30
939;DHT22;456;53.584;9.968;2023-09-18T10:24:36;19.20;51.00
939;DHT22;456;53.584;9.968;2023-09-18T10:27:04;19.20;51.30
939;DHT22;456;53.584;9.968;2023-09-18T10:29:33;19.20;51.60
939;DHT22;456;53.584;9.968;2023-09-18T10:32:06;19.30;49.80
939;DHT22;456;53.584;9.968;2023-09-18T10:34:35;19.20;51.00
939;DHT22;456;53.584;9.968;2023-09-18T10:37:03;19.30;50.90
939;DHT22;456;53.584;9.968;2023-09-18T10:39:35;19.30;51.10
939;DHT22;456;53.584;9.968;2023-09-18T10:42:02;19.20;51.30
939;DHT22;456;53.584;9.968;2023-09-18T10:44:29;19.30;50.50
939;DHT22;456;53.584;9.968;2023-09-18T10:46:59;19.20;51.30
939;DHT22;456;53.584;9.968;2023-09-18T10:49:25;19.30;51.40
939;DHT22;456;53.584;9.968;2023-09-18T10:51:54;19.30;50.90
939;DHT22;456;53.584;9.968;2023-09-18T10:54:22;19.20;51.20
939;DHT22;456;53.584;9.968;2023-09-18T10:56:48;19.30;51.40
939;DHT22;456;53.584;9.968;2023-09-18T10:59:15;19.30;50.90
939;DHT22;456;53.584;9.968;2023-09-18T11:01:41;19.20;51.30
939;DHT22;456;53.584;9.968;2023-09-18T11:04:08;19.30;50.90
939;DHT22;456;53.584;9.968;2023-09-18T11:07:43;19.30;51.40
939;DHT22;456;53.584;9.968;2023-09-18T11:10:25;19.30;51.40
939;DHT22;456;53.584;9.968;2023-09-18T11:12:50;19.30;50.50
939;DHT22;456;53.584;9.968;2023-09-18T11:15:30;19.30;51.40
939;DHT22;456;53.584;9.968;2023-09-18T11:18:01;19.30;50.70
939;DHT22;456;53.584;9.968;2023-09-18T11:20:28;19.30;50.90
939;DHT22;456;53.584;9.968;2023-09-18T11:22:59;19.30;51.40
939;DHT22;456;53.584;9.968;2023-09-18T11:25:36;19.30;50.40
939;DHT22;456;53.584;9.968;2023-09-18T11:28:24;19.20;51.30
939;DHT22;456;53.584;9.968;2023-09-18T11:30:54;19.30;50.90
939;DHT22;456;53.584;9.968;2023-09-18T11:33:32;19.30;51.40
939;DHT22;456;53.584;9.968;2023-09-18T11:36:09;19.30;51.60
939;DHT22;456;53.584;9.968;2023-09-18T11:38:57;19.30;50.60
939;DHT22;456;53.584;9.968;2023-09-18T11:41:27;19.30;51.40
939;DHT22;456;53.584;9.968;2023-09-18T11:46:48;19.30;51.40
939;DHT22;456;53.584;9.968;2023-09-18T11:49:20;19.30;51.60
939;DHT22;456;53.584;9.968;2023-09-18T11:51:47;19.30;50.80
939;DHT22;456;53.584;9.968;2023-09-18T11:54:13;19.30;51.40
939;DHT22;456;53.584;9.968;2023-09-18T11:56:40;19.30;51.40
939;DHT22;456;53.584;9.968;2023-09-18T11:59:05;19.30;50.80
939;DHT22;456;53.584;9.968;2023-09-18T12:01:32;19.30;51.40
939;DHT22;456;53.584;9.968;2023-09-18T12:04:07;19.40;50.70
939;DHT22;456;53.584;9.968;2023-09-18T12:06:41;19.30;51.00
939;DHT22;456;53.584;9.968;2023-09-18T12:09:07;19.30;51.40
939;DHT22;456;53.584;9.968;2023-09-18T12:11:34;19.30;50.30
939;DHT22;456;53.584;9.968;2023-09-18T12:14:04;19.30;50.90
939;DHT22;456;53.584;9.968;2023-09-18T12:16:31;19.30;51.40
939;DHT22;456;53.584;9.968;2023-09-18T12:18:56;19.40;50.70
939;DHT22;456;53.584;9.968;2023-09-18T12:21:22;19.30;50.90
939;DHT22;456;53.584;9.968;2023-09-18T12:23:48;19.40;50.70
939;DHT22;456;53.584;9.968;2023-09-18T12:26:15;19.40;50.70
939;DHT22;456;53.584;9.968;2023-09-18T12:28:42;19.30;51.40
939;DHT22;456;53.584;9.968;2023-09-18T12:31:12;19.40;50.50
939;DHT22;456;53.584;9.968;2023-09-18T12:33:39;19.30;51.10
939;DHT22;456;53.584;9.968;2023-09-18T12:36:06;19.30;51.40
939;DHT22;456;53.584;9.968;2023-09-18T12:38:32;19.40;51.00
939;DHT22;456;53.584;9.968;2023-09-18T12:40:58;19.30;51.20
939;DHT22;456;53.584;9.968;2023-09-18T12:43:35;19.40;51.40
939;DHT22;456;53.584;9.968;2023-09-18T12:46:02;19.40;50.60
939;DHT22;456;53.584;9.968;2023-09-18T12:48:28;19.30;51.80
939;DHT22;456;53.584;9.968;2023-09-18T12:50:54;19.40;50.40
939;DHT22;456;53.584;9.968;2023-09-18T12:53:23;19.40;51.50
939;DHT22;456;53.584;9.968;2023-09-18T12:55:48;19.30;51.40
939;DHT22;456;53.584;9.968;2023-09-18T12:58:19;19.40;50.60
939;DHT22;456;53.584;9.968;2023-09-18T13:00:47;19.30;50.90
939;DHT22;456;53.584;9.968;2023-09-18T13:03:15;19.30;50.80
939;DHT22;456;53.584;9.968;2023-09-18T13:05:40;19.40;50.20
939;DHT22;456;53.584;9.968;2023-09-18T13:08:06;19.30;51.40
939;DHT22;456;53.584;9.968;2023-09-18T13:10:46;19.40;50.40
939;DHT22;456;53.584;9.968;2023-09-18T13:13:19;19.40;51.40
939;DHT22;456;53.584;9.968;2023-09-18T13:15:45;19.30;51.40
939;DHT22;456;53.584;9.968;2023-09-18T13:18:13;19.40;50.70
939;DHT22;456;53.584;9.968;2023-09-18T13:20:39;19.30;51.00
939;DHT22;456;53.584;9.968;2023-09-18T13:23:06;19.40;50.90
939;DHT22;456;53.584;9.968;2023-09-18T13:25:37;19.40;50.50
939;DHT22;456;53.584;9.968;2023-09-18T13:28:05;19.30;51.20
939;DHT22;456;53.584;9.968;2023-09-18T13:30:32;19.40;50.80
939;DHT22;456;53.584;9.968;2023-09-18T13:33:10;19.40;51.50
939;DHT22;456;53.584;9.968;2023-09-18T13:35:40;19.30;52.10
939;DHT22;456;53.584;9.968;2023-09-18T13:38:06;19.40;50.40
939;DHT22;456;53.584;9.968;2023-09-18T13:40:36;19.40;51.00
939;DHT22;456;53.584;9.968;2023-09-18T13:43:06;19.40;50.80
939;DHT22;456;53.584;9.968;2023-09-18T13:45:33;19.40;51.50
939;DHT22;456;53.584;9.968;2023-09-18T13:48:00;19.40;51.50
939;DHT22;456;53.584;9.968;2023-09-18T13:50:26;19.40;50.60
939;DHT22;456;53.584;9.968;2023-09-18T13:52:51;19.40;51.50
939;DHT22;456;53.584;9.968;2023-09-18T13:55:17;19.40;52.10
939;DHT22;456;53.584;9.968;2023-09-18T13:57:42;19.40;50.20
939;DHT22;456;53.584;9.968;2023-09-18T14:00:08;19.40;50.90
939;DHT22;456;53.584;9.968;2023-09-18T14:02:38;19.40;50.30
939;DHT22;456;53.584;9.968;2023-09-18T14:05:04;19.40;50.60
939;DHT22;456;53.584;9.968;2023-09-18T14:07:30;19.40;51.10
939;DHT22;456;53.584;9.968;2023-09-18T14:09:55;19.40;49.90
939;DHT22;456;53.584;9.968;2023-09-18T14:12:21;19.40;50.50
939;DHT22;456;53.584;9.968;2023-09-18T14:14:47;19.40;50.40
939;DHT22;456;53.584;9.968;2023-09-18T14:17:13;19.40;50.30
939;DHT22;456;53.584;9.968;2023-09-18T14:19:38;19.40;50.60
939;DHT22;456;53.584;9.968;2023-09-18T14:22:05;19.50;49.60
939;DHT22;456;53.584;9.968;2023-09-18T14:24:32;19.40;50.30
939;DHT22;456;53.584;9.968;2023-09-18T14:27:00;19.40;50.40
939;DHT22;456;53.584;9.968;2023-09-18T14:29:26;19.50;49.70
939;DHT22;456;53.584;9.968;2023-09-18T14:31:52;19.40;50.10
939;DHT22;456;53.584;9.968;2023-09-18T14:34:18;19.40;49.50
939;DHT22;456;53.584;9.968;2023-09-18T14:36:43;19.40;49.80
939;DHT22;456;53.584;9.968;2023-09-18T14:39:10;19.40;50.30
939;DHT22;456;53.584;9.968;2023-09-18T14:41:39;19.50;49.10
939;DHT22;456;53.584;9.968;2023-09-18T14:44:07;19.40;50.00
939;DHT22;456;53.584;9.968;2023-09-18T14:46:35;19.50;49.30
939;DHT22;456;53.584;9.968;2023-09-18T14:49:02;19.40;49.60
939;DHT22;456;53.584;9.968;2023-09-18T14:51:28;19.40;50.20
939;DHT22;456;53.584;9.968;2023-09-18T14:53:54;19.50;49.70
939;DHT22;456;53.584;9.968;2023-09-18T14:56:20;19.40;49.70
939;DHT22;456;53.584;9.968;2023-09-18T14:58:46;19.50;49.30
939;DHT22;456;53.584;9.968;2023-09-18T15:01:12;19.40;49.80
939;DHT22;456;53.584;9.968;2023-09-18T15:03:39;19.40;50.20
939;DHT22;456;53.584;9.968;2023-09-18T15:06:05;19.50;48.90
939;DHT22;456;53.584;9.968;2023-09-18T15:08:35;19.40;49.80
939;DHT22;456;53.584;9.968;2023-09-18T15:11:01;19.50;49.10
939;DHT22;456;53.584;9.968;2023-09-18T15:13:26;19.40;49.50
939;DHT22;456;53.584;9.968;2023-09-18T15:15:52;19.40;50.10
939;DHT22;456;53.584;9.968;2023-09-18T15:18:18;19.50;48.90
939;DHT22;456;53.584;9.968;2023-09-18T15:20:43;19.40;50.60
939;DHT22;456;53.584;9.968;2023-09-18T15:23:09;19.50;48.80
939;DHT22;456;53.584;9.968;2023-09-18T15:25:35;19.40;49.50
939;DHT22;456;53.584;9.968;2023-09-18T15:28:06;19.40;49.60
939;DHT22;456;53.584;9.968;2023-09-18T15:30:32;19.50;49.40
939;DHT22;456;53.584;9.968;2023-09-18T15:32:58;19.40;49.70
939;DHT22;456;53.584;9.968;2023-09-18T15:35:24;19.50;48.70
939;DHT22;456;53.584;9.968;2023-09-18T15:37:50;19.40;49.30
939;DHT22;456;53.584;9.968;2023-09-18T15:40:16;19.40;49.60
939;DHT22;456;53.584;9.968;2023-09-18T15:42:45;19.50;49.10
939;DHT22;456;53.584;9.968;2023-09-18T15:45:11;19.40;49.80
939;DHT22;456;53.584;9.968;2023-09-18T15:47:40;19.50;48.70
939;DHT22;456;53.584;9.968;2023-09-18T15:50:08;19.40;49.20
939;DHT22;456;53.584;9.968;2023-09-18T15:52:34;19.50;49.10
939;DHT22;456;53.584;9.968;2023-09-18T15:55:00;19.50;48.80
939;DHT22;456;53.584;9.968;2023-09-18T15:57:26;19.40;49.70
939;DHT22;456;53.584;9.968;2023-09-18T15:59:54;19.50;48.20
939;DHT22;456;53.584;9.968;2023-09-18T16:02:21;19.40;49.10
939;DHT22;456;53.584;9.968;2023-09-18T16:04:46;19.40;50.30
939;DHT22;456;53.584;9.968;2023-09-18T16:07:12;19.20;51.30
939;DHT22;456;53.584;9.968;2023-09-18T16:09:39;19.20;51.40
939;DHT22;456;53.584;9.968;2023-09-18T16:12:04;19.20;51.90
939;DHT22;456;53.584;9.968;2023-09-18T16:14:32;19.10;52.10
939;DHT22;456;53.584;9.968;2023-09-18T16:16:58;19.10;51.90
939;DHT22;456;53.584;9.968;2023-09-18T16:19:27;19.10;52.20
939;DHT22;456;53.584;9.968;2023-09-18T16:21:53;19.10;53.20
939;DHT22;456;53.584;9.968;2023-09-18T16:24:19;19.10;52.60
939;DHT22;456;53.584;9.968;2023-09-18T16:26:45;19.10;52.70
939;DHT22;456;53.584;9.968;2023-09-18T16:29:11;19.10;52.90
939;DHT22;456;53.584;9.968;2023-09-18T16:31:37;19.00;52.90
939;DHT22;456;53.584;9.968;2023-09-18T16:34:02;19.00;53.00
939;DHT22;456;53.584;9.968;2023-09-18T16:36:28;19.00;53.00
939;DHT22;456;53.584;9.968;2023-09-18T16:38:54;19.00;53.10
939;DHT22;456;53.584;9.968;2023-09-18T16:41:20;19.00;53.20
939;DHT22;456;53.584;9.968;2023-09-18T16:43:45;19.00;53.20